Disclaimer

Please do not use the information listed here in-flight or in-navigation, as they are not provided to us by the airports but are provided by volunteers, so they might be outdated.

Search


Regions


Airport information page

No radio frequency information is available.

Airport informations:
Latitude: 02° 53' 37.49" S
Longitude: 041° 43' 55.06" W
Elevation: 16 feet - 5 meters
Operating hours: Remarks
Operating agency: Civil government, landing fees and diplomatic clearance may be required
Timezone: UTC-3(-2DT)
Fuel: N/A

Runway information:
09/27 - 6890 x 148 feet< - >2100 x 45 meters

Recent METARs:
SBPB 182145Z 08015KT CAVOK 29/20 Q1008
SBPB 182145Z 08015KT CAVOK 29/20 Q1008
SBPB 182145Z 08015KT CAVOK 29/20 Q1008

Airport on the map: